Terminal Aerodrome Forecast
Issued by NWS

Home | Current Version | Previous Version | Text Only | Print | Product List | Glossary On
Versions: 1 2 3 4 5 6 7 8 9 10 11 12
778
FTUS42 TJSJ 021721
TAFKPK
TAF
TKPK 021721Z 0218/0318 06007KT P6SM FEW018
     FM022300 08008KT P6SM SCT018
     FM031300 08013KT P6SM SCT022 SCT050=

USA.gov is the U.S. government's official web portal to all federal, state and local government web resources and services.